sensor_id;sensor_type;location;lat;lon;timestamp;temperature;humidity
48604;DHT22;32708;51.212;6.788;2023-07-28T00:01:48;18.30;99.90
48604;DHT22;32708;51.212;6.788;2023-07-28T00:04:14;18.30;99.90
48604;DHT22;32708;51.212;6.788;2023-07-28T00:06:40;18.40;99.90
48604;DHT22;32708;51.212;6.788;2023-07-28T00:09:06;18.30;99.90
48604;DHT22;32708;51.212;6.788;2023-07-28T00:11:32;18.30;99.90
48604;DHT22;32708;51.212;6.788;2023-07-28T00:14:01;18.20;99.90
48604;DHT22;32708;51.212;6.788;2023-07-28T00:16:28;18.20;99.90
48604;DHT22;32708;51.212;6.788;2023-07-28T00:18:54;18.30;99.90
48604;DHT22;32708;51.212;6.788;2023-07-28T00:21:20;18.20;99.90
48604;DHT22;32708;51.212;6.788;2023-07-28T00:23:46;18.30;99.90
48604;DHT22;32708;51.212;6.788;2023-07-28T00:26:12;18.30;99.90
48604;DHT22;32708;51.212;6.788;2023-07-28T00:28:39;18.30;99.90
48604;DHT22;32708;51.212;6.788;2023-07-28T00:31:05;18.30;99.90
48604;DHT22;32708;51.212;6.788;2023-07-28T00:33:31;18.30;99.90
48604;DHT22;32708;51.212;6.788;2023-07-28T00:35:57;18.30;99.90
48604;DHT22;32708;51.212;6.788;2023-07-28T00:38:25;18.30;99.90
48604;DHT22;32708;51.212;6.788;2023-07-28T00:40:51;18.30;99.90
48604;DHT22;32708;51.212;6.788;2023-07-28T00:43:17;18.30;99.90
48604;DHT22;32708;51.212;6.788;2023-07-28T00:45:43;18.30;99.90
48604;DHT22;32708;51.212;6.788;2023-07-28T00:48:14;18.40;99.90
48604;DHT22;32708;51.212;6.788;2023-07-28T00:50:45;18.30;99.90
48604;DHT22;32708;51.212;6.788;2023-07-28T00:53:14;18.40;99.90
48604;DHT22;32708;51.212;6.788;2023-07-28T00:55:41;18.40;99.90
48604;DHT22;32708;51.212;6.788;2023-07-28T00:58:08;18.40;99.90
48604;DHT22;32708;51.212;6.788;2023-07-28T01:00:38;18.30;99.90
48604;DHT22;32708;51.212;6.788;2023-07-28T01:03:04;18.30;99.90
48604;DHT22;32708;51.212;6.788;2023-07-28T01:08:49;18.30;99.90
48604;DHT22;32708;51.212;6.788;2023-07-28T01:11:24;18.40;99.90
48604;DHT22;32708;51.212;6.788;2023-07-28T01:13:50;18.30;99.90
48604;DHT22;32708;51.212;6.788;2023-07-28T01:16:16;18.20;99.90
48604;DHT22;32708;51.212;6.788;2023-07-28T01:18:43;18.30;99.90
48604;DHT22;32708;51.212;6.788;2023-07-28T01:21:17;18.30;99.90
48604;DHT22;32708;51.212;6.788;2023-07-28T01:24:30;18.30;99.90
48604;DHT22;32708;51.212;6.788;2023-07-28T01:27:07;18.20;99.90
48604;DHT22;32708;51.212;6.788;2023-07-28T01:29:36;18.20;99.90
48604;DHT22;32708;51.212;6.788;2023-07-28T01:32:04;18.30;99.90
48604;DHT22;32708;51.212;6.788;2023-07-28T01:34:30;18.30;99.90
48604;DHT22;32708;51.212;6.788;2023-07-28T01:36:56;18.20;99.90
48604;DHT22;32708;51.212;6.788;2023-07-28T01:39:22;18.20;99.90
48604;DHT22;32708;51.212;6.788;2023-07-28T01:41:49;18.20;99.90
48604;DHT22;32708;51.212;6.788;2023-07-28T01:44:15;18.20;99.90
48604;DHT22;32708;51.212;6.788;2023-07-28T01:46:41;18.20;99.90
48604;DHT22;32708;51.212;6.788;2023-07-28T01:49:07;18.20;99.90
48604;DHT22;32708;51.212;6.788;2023-07-28T01:51:33;18.20;99.90
48604;DHT22;32708;51.212;6.788;2023-07-28T01:53:59;18.20;99.90
48604;DHT22;32708;51.212;6.788;2023-07-28T01:56:25;18.30;99.90
48604;DHT22;32708;51.212;6.788;2023-07-28T01:58:51;18.30;99.90
48604;DHT22;32708;51.212;6.788;2023-07-28T02:01:18;18.20;99.90
48604;DHT22;32708;51.212;6.788;2023-07-28T02:03:44;18.20;99.90
48604;DHT22;32708;51.212;6.788;2023-07-28T02:06:10;18.20;99.90
48604;DHT22;32708;51.212;6.788;2023-07-28T02:08:36;18.20;99.90
48604;DHT22;32708;51.212;6.788;2023-07-28T02:11:02;18.20;99.90
48604;DHT22;32708;51.212;6.788;2023-07-28T02:13:28;18.20;99.90
48604;DHT22;32708;51.212;6.788;2023-07-28T02:15:54;18.20;99.90
48604;DHT22;32708;51.212;6.788;2023-07-28T02:18:21;18.20;99.90
48604;DHT22;32708;51.212;6.788;2023-07-28T02:20:50;18.20;99.90
48604;DHT22;32708;51.212;6.788;2023-07-28T02:23:16;18.20;99.90
48604;DHT22;32708;51.212;6.788;2023-07-28T02:25:43;18.20;99.90
48604;DHT22;32708;51.212;6.788;2023-07-28T02:28:10;17.90;99.90
48604;DHT22;32708;51.212;6.788;2023-07-28T02:30:38;18.00;99.90
48604;DHT22;32708;51.212;6.788;2023-07-28T02:33:06;18.00;99.90
48604;DHT22;32708;51.212;6.788;2023-07-28T02:35:32;18.00;99.90
48604;DHT22;32708;51.212;6.788;2023-07-28T02:37:59;18.00;99.90
48604;DHT22;32708;51.212;6.788;2023-07-28T02:40:25;18.10;99.90
48604;DHT22;32708;51.212;6.788;2023-07-28T02:42:51;18.10;99.90
48604;DHT22;32708;51.212;6.788;2023-07-28T02:45:18;18.10;99.90
48604;DHT22;32708;51.212;6.788;2023-07-28T02:47:45;18.20;99.90
48604;DHT22;32708;51.212;6.788;2023-07-28T02:50:11;18.10;99.90
48604;DHT22;32708;51.212;6.788;2023-07-28T02:52:37;18.20;99.90
48604;DHT22;32708;51.212;6.788;2023-07-28T02:55:03;18.20;99.90
48604;DHT22;32708;51.212;6.788;2023-07-28T02:57:31;18.20;99.90
48604;DHT22;32708;51.212;6.788;2023-07-28T02:59:57;18.20;99.90
48604;DHT22;32708;51.212;6.788;2023-07-28T03:02:23;18.20;99.90
48604;DHT22;32708;51.212;6.788;2023-07-28T03:04:52;18.20;99.90
48604;DHT22;32708;51.212;6.788;2023-07-28T03:07:46;18.30;99.90
48604;DHT22;32708;51.212;6.788;2023-07-28T03:10:13;18.20;99.90
48604;DHT22;32708;51.212;6.788;2023-07-28T03:12:42;18.30;99.90
48604;DHT22;32708;51.212;6.788;2023-07-28T03:15:09;18.20;99.90
48604;DHT22;32708;51.212;6.788;2023-07-28T03:17:35;18.20;99.90
48604;DHT22;32708;51.212;6.788;2023-07-28T03:20:02;18.20;99.90
48604;DHT22;32708;51.212;6.788;2023-07-28T03:22:28;18.20;99.90
48604;DHT22;32708;51.212;6.788;2023-07-28T03:24:56;18.30;99.90
48604;DHT22;32708;51.212;6.788;2023-07-28T03:27:22;18.30;99.90
48604;DHT22;32708;51.212;6.788;2023-07-28T03:29:48;18.30;99.90
48604;DHT22;32708;51.212;6.788;2023-07-28T03:32:16;18.30;99.90
48604;DHT22;32708;51.212;6.788;2023-07-28T03:34:42;18.20;99.90
48604;DHT22;32708;51.212;6.788;2023-07-28T03:37:16;18.30;99.90
48604;DHT22;32708;51.212;6.788;2023-07-28T03:39:42;18.20;99.90
48604;DHT22;32708;51.212;6.788;2023-07-28T03:42:09;18.30;99.90
48604;DHT22;32708;51.212;6.788;2023-07-28T03:44:35;18.40;99.90
48604;DHT22;32708;51.212;6.788;2023-07-28T03:47:03;18.20;99.90
48604;DHT22;32708;51.212;6.788;2023-07-28T03:49:30;18.30;99.90
48604;DHT22;32708;51.212;6.788;2023-07-28T03:51:56;18.30;99.90
48604;DHT22;32708;51.212;6.788;2023-07-28T03:54:22;18.30;99.90
48604;DHT22;32708;51.212;6.788;2023-07-28T03:56:48;18.30;99.90
48604;DHT22;32708;51.212;6.788;2023-07-28T03:59:15;18.30;99.90
48604;DHT22;32708;51.212;6.788;2023-07-28T04:01:41;18.40;99.90
48604;DHT22;32708;51.212;6.788;2023-07-28T04:04:07;18.40;99.90
48604;DHT22;32708;51.212;6.788;2023-07-28T04:06:45;18.30;99.90
48604;DHT22;32708;51.212;6.788;2023-07-28T04:09:15;18.40;99.90
48604;DHT22;32708;51.212;6.788;2023-07-28T04:11:41;18.40;99.90
48604;DHT22;32708;51.212;6.788;2023-07-28T04:14:07;18.30;99.90
48604;DHT22;32708;51.212;6.788;2023-07-28T04:16:34;18.30;99.90
48604;DHT22;32708;51.212;6.788;2023-07-28T04:19:00;18.30;99.90
48604;DHT22;32708;51.212;6.788;2023-07-28T04:21:27;18.40;99.90
48604;DHT22;32708;51.212;6.788;2023-07-28T04:23:53;18.40;99.90
48604;DHT22;32708;51.212;6.788;2023-07-28T04:26:20;18.40;99.90
48604;DHT22;32708;51.212;6.788;2023-07-28T04:28:51;18.40;99.90
48604;DHT22;32708;51.212;6.788;2023-07-28T04:31:17;18.50;99.90
48604;DHT22;32708;51.212;6.788;2023-07-28T04:33:58;18.00;99.90
48604;DHT22;32708;51.212;6.788;2023-07-28T04:36:44;18.40;99.90
48604;DHT22;32708;51.212;6.788;2023-07-28T04:39:16;18.40;99.90
48604;DHT22;32708;51.212;6.788;2023-07-28T04:41:47;18.40;99.90
48604;DHT22;32708;51.212;6.788;2023-07-28T04:44:14;18.50;99.90
48604;DHT22;32708;51.212;6.788;2023-07-28T04:46:44;18.50;99.90
48604;DHT22;32708;51.212;6.788;2023-07-28T04:49:14;18.00;99.90
48604;DHT22;32708;51.212;6.788;2023-07-28T04:52:10;18.60;99.90
48604;DHT22;32708;51.212;6.788;2023-07-28T04:54:50;18.40;99.90
48604;DHT22;32708;51.212;6.788;2023-07-28T04:57:23;17.50;99.90
48604;DHT22;32708;51.212;6.788;2023-07-28T04:59:53;18.50;99.90
48604;DHT22;32708;51.212;6.788;2023-07-28T05:02:22;18.60;99.90
48604;DHT22;32708;51.212;6.788;2023-07-28T05:04:52;18.80;99.90
48604;DHT22;32708;51.212;6.788;2023-07-28T05:07:19;18.60;99.90
48604;DHT22;32708;51.212;6.788;2023-07-28T05:09:48;18.60;99.90
48604;DHT22;32708;51.212;6.788;2023-07-28T05:12:15;18.60;99.90
48604;DHT22;32708;51.212;6.788;2023-07-28T05:14:47;18.70;99.90
48604;DHT22;32708;51.212;6.788;2023-07-28T05:17:17;18.70;99.90
48604;DHT22;32708;51.212;6.788;2023-07-28T05:19:54;18.60;99.90
48604;DHT22;32708;51.212;6.788;2023-07-28T05:22:41;18.70;99.90
48604;DHT22;32708;51.212;6.788;2023-07-28T05:25:08;18.70;99.90
48604;DHT22;32708;51.212;6.788;2023-07-28T05:27:39;18.70;99.90
48604;DHT22;32708;51.212;6.788;2023-07-28T05:30:06;18.70;99.90
48604;DHT22;32708;51.212;6.788;2023-07-28T05:32:33;18.70;99.90
48604;DHT22;32708;51.212;6.788;2023-07-28T05:35:21;18.70;99.90
48604;DHT22;32708;51.212;6.788;2023-07-28T05:37:51;18.80;99.90
48604;DHT22;32708;51.212;6.788;2023-07-28T05:40:18;18.80;99.90
48604;DHT22;32708;51.212;6.788;2023-07-28T05:42:47;18.70;99.90
48604;DHT22;32708;51.212;6.788;2023-07-28T05:45:20;18.60;99.90
48604;DHT22;32708;51.212;6.788;2023-07-28T05:47:46;18.70;99.90
48604;DHT22;32708;51.212;6.788;2023-07-28T05:50:24;18.70;99.90
48604;DHT22;32708;51.212;6.788;2023-07-28T05:52:56;18.70;99.90
48604;DHT22;32708;51.212;6.788;2023-07-28T05:55:23;18.60;99.90
48604;DHT22;32708;51.212;6.788;2023-07-28T05:57:50;18.80;99.90
48604;DHT22;32708;51.212;6.788;2023-07-28T06:00:16;18.70;99.90
48604;DHT22;32708;51.212;6.788;2023-07-28T06:02:50;18.80;99.90
48604;DHT22;32708;51.212;6.788;2023-07-28T06:05:34;18.80;99.90
48604;DHT22;32708;51.212;6.788;2023-07-28T06:08:11;18.70;99.90
48604;DHT22;32708;51.212;6.788;2023-07-28T06:10:38;18.80;99.90
48604;DHT22;32708;51.212;6.788;2023-07-28T06:13:20;18.90;99.90
48604;DHT22;32708;51.212;6.788;2023-07-28T06:15:53;18.90;99.90
48604;DHT22;32708;51.212;6.788;2023-07-28T06:18:25;18.90;99.90
48604;DHT22;32708;51.212;6.788;2023-07-28T06:21:03;18.90;99.90
48604;DHT22;32708;51.212;6.788;2023-07-28T06:23:33;18.80;99.90
48604;DHT22;32708;51.212;6.788;2023-07-28T06:26:00;18.90;99.90
48604;DHT22;32708;51.212;6.788;2023-07-28T06:28:33;18.90;99.90
48604;DHT22;32708;51.212;6.788;2023-07-28T06:31:05;18.90;99.90
48604;DHT22;32708;51.212;6.788;2023-07-28T06:33:42;18.90;99.90
48604;DHT22;32708;51.212;6.788;2023-07-28T06:36:18;18.90;99.90
48604;DHT22;32708;51.212;6.788;2023-07-28T06:38:47;19.40;99.90
48604;DHT22;32708;51.212;6.788;2023-07-28T06:41:15;19.00;99.90
48604;DHT22;32708;51.212;6.788;2023-07-28T06:43:45;18.90;99.90
48604;DHT22;32708;51.212;6.788;2023-07-28T06:46:12;19.00;99.90
48604;DHT22;32708;51.212;6.788;2023-07-28T06:48:39;19.00;99.90
48604;DHT22;32708;51.212;6.788;2023-07-28T06:51:07;19.00;99.90
48604;DHT22;32708;51.212;6.788;2023-07-28T06:53:33;19.00;99.90
48604;DHT22;32708;51.212;6.788;2023-07-28T06:56:03;19.00;99.90
48604;DHT22;32708;51.212;6.788;2023-07-28T06:58:34;18.90;99.90
48604;DHT22;32708;51.212;6.788;2023-07-28T07:01:01;19.00;99.90
48604;DHT22;32708;51.212;6.788;2023-07-28T07:03:28;19.00;99.90
48604;DHT22;32708;51.212;6.788;2023-07-28T07:05:54;19.00;99.90
48604;DHT22;32708;51.212;6.788;2023-07-28T07:08:21;19.00;99.90
48604;DHT22;32708;51.212;6.788;2023-07-28T07:10:50;19.10;99.90
48604;DHT22;32708;51.212;6.788;2023-07-28T07:13:20;19.10;99.90
48604;DHT22;32708;51.212;6.788;2023-07-28T07:15:47;19.10;99.90
48604;DHT22;32708;51.212;6.788;2023-07-28T07:18:15;19.20;99.90
48604;DHT22;32708;51.212;6.788;2023-07-28T07:20:41;19.20;99.90
48604;DHT22;32708;51.212;6.788;2023-07-28T07:23:10;19.30;99.90
48604;DHT22;32708;51.212;6.788;2023-07-28T07:25:39;19.30;99.90
48604;DHT22;32708;51.212;6.788;2023-07-28T07:28:09;19.20;99.90
48604;DHT22;32708;51.212;6.788;2023-07-28T07:30:36;19.30;99.90
48604;DHT22;32708;51.212;6.788;2023-07-28T07:33:02;19.40;99.90
48604;DHT22;32708;51.212;6.788;2023-07-28T07:35:36;19.50;99.90
48604;DHT22;32708;51.212;6.788;2023-07-28T07:38:06;19.60;99.90
48604;DHT22;32708;51.212;6.788;2023-07-28T07:40:35;19.60;99.90
48604;DHT22;32708;51.212;6.788;2023-07-28T07:43:04;19.60;99.90
48604;DHT22;32708;51.212;6.788;2023-07-28T07:45:31;19.60;99.90
48604;DHT22;32708;51.212;6.788;2023-07-28T07:48:01;19.60;99.90
48604;DHT22;32708;51.212;6.788;2023-07-28T07:50:29;19.50;99.90
48604;DHT22;32708;51.212;6.788;2023-07-28T07:52:56;19.60;99.90
48604;DHT22;32708;51.212;6.788;2023-07-28T07:55:22;19.60;99.90
48604;DHT22;32708;51.212;6.788;2023-07-28T07:57:53;19.60;99.90
48604;DHT22;32708;51.212;6.788;2023-07-28T08:00:20;19.60;99.90
48604;DHT22;32708;51.212;6.788;2023-07-28T08:02:46;19.60;99.90
48604;DHT22;32708;51.212;6.788;2023-07-28T08:05:12;19.70;99.90
48604;DHT22;32708;51.212;6.788;2023-07-28T08:07:41;19.60;99.90
48604;DHT22;32708;51.212;6.788;2023-07-28T08:10:08;19.60;99.90
48604;DHT22;32708;51.212;6.788;2023-07-28T08:12:37;19.60;99.90
48604;DHT22;32708;51.212;6.788;2023-07-28T08:15:07;19.70;99.90
48604;DHT22;32708;51.212;6.788;2023-07-28T08:17:34;19.60;99.90
48604;DHT22;32708;51.212;6.788;2023-07-28T08:20:06;18.80;99.90
48604;DHT22;32708;51.212;6.788;2023-07-28T08:22:39;19.70;99.90
48604;DHT22;32708;51.212;6.788;2023-07-28T08:25:12;19.70;99.90
48604;DHT22;32708;51.212;6.788;2023-07-28T08:27:39;19.70;99.90
48604;DHT22;32708;51.212;6.788;2023-07-28T08:30:05;19.70;99.90
48604;DHT22;32708;51.212;6.788;2023-07-28T08:32:36;19.70;99.90
48604;DHT22;32708;51.212;6.788;2023-07-28T08:35:03;19.70;99.90
48604;DHT22;32708;51.212;6.788;2023-07-28T08:37:30;19.80;99.90
48604;DHT22;32708;51.212;6.788;2023-07-28T08:39:56;19.80;99.90
48604;DHT22;32708;51.212;6.788;2023-07-28T08:42:25;20.00;99.90
48604;DHT22;32708;51.212;6.788;2023-07-28T08:44:52;20.10;99.90
48604;DHT22;32708;51.212;6.788;2023-07-28T08:47:24;20.10;99.90
48604;DHT22;32708;51.212;6.788;2023-07-28T08:49:55;20.20;99.90
48604;DHT22;32708;51.212;6.788;2023-07-28T08:52:26;20.10;99.90
48604;DHT22;32708;51.212;6.788;2023-07-28T08:55:16;20.20;99.90
48604;DHT22;32708;51.212;6.788;2023-07-28T08:58:22;20.30;99.90
48604;DHT22;32708;51.212;6.788;2023-07-28T09:01:03;20.30;99.90
48604;DHT22;32708;51.212;6.788;2023-07-28T09:03:53;20.60;99.90
48604;DHT22;32708;51.212;6.788;2023-07-28T09:06:47;20.50;99.90
48604;DHT22;32708;51.212;6.788;2023-07-28T09:09:41;20.20;99.90
48604;DHT22;32708;51.212;6.788;2023-07-28T09:15:47;21.00;99.90
48604;DHT22;32708;51.212;6.788;2023-07-28T09:18:17;21.30;99.90
48604;DHT22;32708;51.212;6.788;2023-07-28T09:25:43;21.60;99.90
48604;DHT22;32708;51.212;6.788;2023-07-28T09:28:16;21.60;99.90
48604;DHT22;32708;51.212;6.788;2023-07-28T09:30:50;21.60;99.90
48604;DHT22;32708;51.212;6.788;2023-07-28T09:33:36;21.50;99.90
48604;DHT22;32708;51.212;6.788;2023-07-28T09:36:38;21.70;99.90
48604;DHT22;32708;51.212;6.788;2023-07-28T09:39:22;20.30;99.90
48604;DHT22;32708;51.212;6.788;2023-07-28T09:42:28;21.40;99.90
48604;DHT22;32708;51.212;6.788;2023-07-28T09:45:12;21.40;99.90
48604;DHT22;32708;51.212;6.788;2023-07-28T09:47:57;20.70;99.90
48604;DHT22;32708;51.212;6.788;2023-07-28T09:50:37;21.60;99.90
48604;DHT22;32708;51.212;6.788;2023-07-28T09:56:17;21.20;99.90
48604;DHT22;32708;51.212;6.788;2023-07-28T09:58:52;21.90;99.90
48604;DHT22;32708;51.212;6.788;2023-07-28T10:01:20;21.90;99.90
48604;DHT22;32708;51.212;6.788;2023-07-28T10:03:49;22.10;99.90
48604;DHT22;32708;51.212;6.788;2023-07-28T10:06:20;22.40;99.90
48604;DHT22;32708;51.212;6.788;2023-07-28T10:08:49;22.70;99.90
48604;DHT22;32708;51.212;6.788;2023-07-28T10:11:17;22.80;99.90
48604;DHT22;32708;51.212;6.788;2023-07-28T10:13:45;22.90;99.90
48604;DHT22;32708;51.212;6.788;2023-07-28T10:16:12;23.00;99.90
48604;DHT22;32708;51.212;6.788;2023-07-28T10:18:54;22.80;99.90
48604;DHT22;32708;51.212;6.788;2023-07-28T10:21:21;22.70;99.90
48604;DHT22;32708;51.212;6.788;2023-07-28T10:23:54;22.70;99.90
48604;DHT22;32708;51.212;6.788;2023-07-28T10:26:41;23.00;99.90
48604;DHT22;32708;51.212;6.788;2023-07-28T10:29:09;22.90;99.90
48604;DHT22;32708;51.212;6.788;2023-07-28T10:31:36;22.70;99.90
48604;DHT22;32708;51.212;6.788;2023-07-28T10:34:03;22.60;99.90
48604;DHT22;32708;51.212;6.788;2023-07-28T10:41:30;22.10;99.90
48604;DHT22;32708;51.212;6.788;2023-07-28T10:44:00;21.90;99.90
48604;DHT22;32708;51.212;6.788;2023-07-28T10:46:27;21.70;99.90
48604;DHT22;32708;51.212;6.788;2023-07-28T10:48:53;21.90;99.90
48604;DHT22;32708;51.212;6.788;2023-07-28T10:54:00;22.20;99.90
48604;DHT22;32708;51.212;6.788;2023-07-28T10:56:28;22.30;99.90
48604;DHT22;32708;51.212;6.788;2023-07-28T10:59:03;22.60;99.90
48604;DHT22;32708;51.212;6.788;2023-07-28T11:01:37;23.00;99.90
48604;DHT22;32708;51.212;6.788;2023-07-28T11:04:18;23.30;99.90
48604;DHT22;32708;51.212;6.788;2023-07-28T11:06:50;23.50;99.90
48604;DHT22;32708;51.212;6.788;2023-07-28T11:09:19;23.60;99.90
48604;DHT22;32708;51.212;6.788;2023-07-28T11:11:50;23.20;99.90
48604;DHT22;32708;51.212;6.788;2023-07-28T11:14:17;23.30;99.90
48604;DHT22;32708;51.212;6.788;2023-07-28T11:16:44;23.30;99.90
48604;DHT22;32708;51.212;6.788;2023-07-28T11:19:13;23.70;99.90
48604;DHT22;32708;51.212;6.788;2023-07-28T11:21:41;24.00;99.90
48604;DHT22;32708;51.212;6.788;2023-07-28T11:24:10;24.20;99.90
48604;DHT22;32708;51.212;6.788;2023-07-28T11:26:38;24.40;99.90
48604;DHT22;32708;51.212;6.788;2023-07-28T11:29:06;24.60;99.90
48604;DHT22;32708;51.212;6.788;2023-07-28T11:31:32;25.00;99.90
48604;DHT22;32708;51.212;6.788;2023-07-28T11:33:59;24.80;99.90
48604;DHT22;32708;51.212;6.788;2023-07-28T11:36:27;24.80;99.90
48604;DHT22;32708;51.212;6.788;2023-07-28T11:38:58;24.80;99.90
48604;DHT22;32708;51.212;6.788;2023-07-28T11:41:27;24.80;99.90
48604;DHT22;32708;51.212;6.788;2023-07-28T11:43:54;24.40;99.90
48604;DHT22;32708;51.212;6.788;2023-07-28T11:46:41;23.90;99.90
48604;DHT22;32708;51.212;6.788;2023-07-28T11:49:19;23.40;99.90
48604;DHT22;32708;51.212;6.788;2023-07-28T11:51:51;23.00;99.90
48604;DHT22;32708;51.212;6.788;2023-07-28T11:54:22;22.60;99.90
48604;DHT22;32708;51.212;6.788;2023-07-28T11:56:56;22.20;99.90
48604;DHT22;32708;51.212;6.788;2023-07-28T11:59:23;22.50;99.90
48604;DHT22;32708;51.212;6.788;2023-07-28T12:04:26;23.70;99.90
48604;DHT22;32708;51.212;6.788;2023-07-28T12:07:11;24.10;99.90
48604;DHT22;32708;51.212;6.788;2023-07-28T12:12:12;24.80;99.90
48604;DHT22;32708;51.212;6.788;2023-07-28T12:14:39;25.00;99.90
48604;DHT22;32708;51.212;6.788;2023-07-28T12:17:19;25.00;99.90
48604;DHT22;32708;51.212;6.788;2023-07-28T12:20:03;25.10;99.90
48604;DHT22;32708;51.212;6.788;2023-07-28T12:22:43;25.10;99.90
48604;DHT22;32708;51.212;6.788;2023-07-28T12:25:11;25.10;99.90
48604;DHT22;32708;51.212;6.788;2023-07-28T12:27:38;25.10;99.90
48604;DHT22;32708;51.212;6.788;2023-07-28T12:30:05;25.60;99.90
48604;DHT22;32708;51.212;6.788;2023-07-28T12:32:33;25.70;99.90
48604;DHT22;32708;51.212;6.788;2023-07-28T12:35:00;25.70;99.90
48604;DHT22;32708;51.212;6.788;2023-07-28T12:37:26;25.40;99.90
48604;DHT22;32708;51.212;6.788;2023-07-28T12:39:52;25.40;99.90
48604;DHT22;32708;51.212;6.788;2023-07-28T12:42:18;25.30;99.90
48604;DHT22;32708;51.212;6.788;2023-07-28T12:44:46;24.90;99.90
48604;DHT22;32708;51.212;6.788;2023-07-28T12:47:12;24.60;99.90
48604;DHT22;32708;51.212;6.788;2023-07-28T12:49:38;24.20;99.90
48604;DHT22;32708;51.212;6.788;2023-07-28T12:52:05;24.10;99.90
48604;DHT22;32708;51.212;6.788;2023-07-28T12:54:33;24.00;99.90
48604;DHT22;32708;51.212;6.788;2023-07-28T12:56:59;23.90;99.90
48604;DHT22;32708;51.212;6.788;2023-07-28T12:59:25;24.00;99.90
48604;DHT22;32708;51.212;6.788;2023-07-28T13:01:51;24.00;99.90
48604;DHT22;32708;51.212;6.788;2023-07-28T13:04:17;24.00;99.90
48604;DHT22;32708;51.212;6.788;2023-07-28T13:06:43;24.00;99.90
48604;DHT22;32708;51.212;6.788;2023-07-28T13:09:10;23.80;99.90
48604;DHT22;32708;51.212;6.788;2023-07-28T13:11:36;23.70;99.90
48604;DHT22;32708;51.212;6.788;2023-07-28T13:14:02;23.50;99.90
48604;DHT22;32708;51.212;6.788;2023-07-28T13:16:29;22.90;99.90
48604;DHT22;32708;51.212;6.788;2023-07-28T13:18:55;22.80;99.90
48604;DHT22;32708;51.212;6.788;2023-07-28T13:21:22;22.80;99.90
48604;DHT22;32708;51.212;6.788;2023-07-28T13:23:49;22.50;99.90
48604;DHT22;32708;51.212;6.788;2023-07-28T13:26:15;22.40;99.90
48604;DHT22;32708;51.212;6.788;2023-07-28T13:28:41;22.30;99.90
48604;DHT22;32708;51.212;6.788;2023-07-28T13:31:16;22.40;99.90
48604;DHT22;32708;51.212;6.788;2023-07-28T13:33:43;22.50;99.90
48604;DHT22;32708;51.212;6.788;2023-07-28T13:36:11;22.40;99.90
48604;DHT22;32708;51.212;6.788;2023-07-28T13:38:38;22.40;99.90
48604;DHT22;32708;51.212;6.788;2023-07-28T13:41:05;22.00;99.90
48604;DHT22;32708;51.212;6.788;2023-07-28T13:43:33;21.90;99.90
48604;DHT22;32708;51.212;6.788;2023-07-28T13:46:04;21.90;99.90
48604;DHT22;32708;51.212;6.788;2023-07-28T13:48:33;22.00;99.90
48604;DHT22;32708;51.212;6.788;2023-07-28T13:51:02;22.10;99.90
48604;DHT22;32708;51.212;6.788;2023-07-28T13:53:28;22.20;99.90
48604;DHT22;32708;51.212;6.788;2023-07-28T13:55:55;22.20;99.90
48604;DHT22;32708;51.212;6.788;2023-07-28T13:58:21;22.30;99.90
48604;DHT22;32708;51.212;6.788;2023-07-28T14:00:48;22.20;99.90
48604;DHT22;32708;51.212;6.788;2023-07-28T14:03:15;22.30;99.90
48604;DHT22;32708;51.212;6.788;2023-07-28T14:05:42;22.30;99.90
48604;DHT22;32708;51.212;6.788;2023-07-28T14:08:08;22.30;99.90
48604;DHT22;32708;51.212;6.788;2023-07-28T14:10:36;22.30;99.90
48604;DHT22;32708;51.212;6.788;2023-07-28T14:13:04;22.50;99.90
48604;DHT22;32708;51.212;6.788;2023-07-28T14:15:30;22.40;99.90
48604;DHT22;32708;51.212;6.788;2023-07-28T14:17:56;22.60;99.90
48604;DHT22;32708;51.212;6.788;2023-07-28T14:20:22;22.50;99.90
48604;DHT22;32708;51.212;6.788;2023-07-28T14:22:48;22.40;99.90
48604;DHT22;32708;51.212;6.788;2023-07-28T14:25:14;22.50;99.90
48604;DHT22;32708;51.212;6.788;2023-07-28T14:27:40;22.50;99.90
48604;DHT22;32708;51.212;6.788;2023-07-28T14:30:07;22.60;99.90
48604;DHT22;32708;51.212;6.788;2023-07-28T14:32:34;22.00;99.90
48604;DHT22;32708;51.212;6.788;2023-07-28T14:35:00;22.70;99.90
48604;DHT22;32708;51.212;6.788;2023-07-28T14:37:26;22.80;99.90
48604;DHT22;32708;51.212;6.788;2023-07-28T14:39:52;22.20;99.90
48604;DHT22;32708;51.212;6.788;2023-07-28T14:42:18;22.80;99.90
48604;DHT22;32708;51.212;6.788;2023-07-28T14:44:45;22.70;99.90
48604;DHT22;32708;51.212;6.788;2023-07-28T14:47:11;22.60;99.90
48604;DHT22;32708;51.212;6.788;2023-07-28T14:49:38;22.70;99.90
48604;DHT22;32708;51.212;6.788;2023-07-28T14:52:04;22.70;99.90
48604;DHT22;32708;51.212;6.788;2023-07-28T14:54:30;22.90;99.90
48604;DHT22;32708;51.212;6.788;2023-07-28T14:56:57;22.90;99.90
48604;DHT22;32708;51.212;6.788;2023-07-28T14:59:23;23.10;99.90
48604;DHT22;32708;51.212;6.788;2023-07-28T15:01:49;23.10;99.90
48604;DHT22;32708;51.212;6.788;2023-07-28T15:04:15;23.20;99.90
48604;DHT22;32708;51.212;6.788;2023-07-28T15:06:42;23.30;99.90
48604;DHT22;32708;51.212;6.788;2023-07-28T15:09:08;23.20;99.90
48604;DHT22;32708;51.212;6.788;2023-07-28T15:11:34;23.30;99.90
48604;DHT22;32708;51.212;6.788;2023-07-28T15:14:00;23.50;99.90
48604;DHT22;32708;51.212;6.788;2023-07-28T15:16:26;23.50;99.90
48604;DHT22;32708;51.212;6.788;2023-07-28T15:18:52;23.40;99.90
48604;DHT22;32708;51.212;6.788;2023-07-28T15:21:19;23.40;99.90
48604;DHT22;32708;51.212;6.788;2023-07-28T15:23:46;23.30;99.90
48604;DHT22;32708;51.212;6.788;2023-07-28T15:26:19;23.40;99.90
48604;DHT22;32708;51.212;6.788;2023-07-28T15:28:46;23.40;99.90
48604;DHT22;32708;51.212;6.788;2023-07-28T15:31:12;23.40;99.90
48604;DHT22;32708;51.212;6.788;2023-07-28T15:33:38;23.20;99.90
48604;DHT22;32708;51.212;6.788;2023-07-28T15:36:04;23.10;99.90
48604;DHT22;32708;51.212;6.788;2023-07-28T15:38:30;23.00;99.90
48604;DHT22;32708;51.212;6.788;2023-07-28T15:40:57;22.80;99.90
48604;DHT22;32708;51.212;6.788;2023-07-28T15:43:24;22.60;99.90
48604;DHT22;32708;51.212;6.788;2023-07-28T15:45:50;22.60;99.90
48604;DHT22;32708;51.212;6.788;2023-07-28T15:48:20;22.50;99.90
48604;DHT22;32708;51.212;6.788;2023-07-28T15:50:47;22.50;99.90
48604;DHT22;32708;51.212;6.788;2023-07-28T15:53:13;22.50;99.90
48604;DHT22;32708;51.212;6.788;2023-07-28T15:55:39;22.50;99.90
48604;DHT22;32708;51.212;6.788;2023-07-28T15:58:05;22.40;99.90
48604;DHT22;32708;51.212;6.788;2023-07-28T16:00:31;22.50;99.90
48604;DHT22;32708;51.212;6.788;2023-07-28T16:02:58;22.50;99.90
48604;DHT22;32708;51.212;6.788;2023-07-28T16:05:24;22.70;99.90
48604;DHT22;32708;51.212;6.788;2023-07-28T16:07:51;22.80;99.90
48604;DHT22;32708;51.212;6.788;2023-07-28T16:10:17;23.00;99.90
48604;DHT22;32708;51.212;6.788;2023-07-28T16:12:43;23.00;99.90